Time;durP1;ratioP1;P1;durP2;ratioP2;P2;SDS_P1;SDS_P2;PMS_P1;PMS_P2;Temp;Humidity;BMP_temperature;BMP_pressure;BME280_temperature;BME280_humidity;BME280_pressure;Samples;Min_cycle;Max_cycle;Signal;HPM_P1;HPM_P2
2020/12/23 00:00:41;;;;;;;0.95;0.68;;;;;;;9.95;100.00;96594.56;4940490;28;20050;-48
2020/12/23 00:03:08;;;;;;;0.70;0.50;;;;;;;9.98;100.00;96600.38;4991092;28;20124;-49
2020/12/23 00:05:35;;;;;;;1.23;0.63;;;;;;;9.99;100.00;96595.94;4949899;28;20565;-49
2020/12/23 00:08:02;;;;;;;1.00;0.73;;;;;;;10.03;100.00;96589.44;4985218;28;20097;-53
2020/12/23 00:10:29;;;;;;;2.35;0.93;;;;;;;9.91;100.00;96587.88;4946219;28;20133;-47
2020/12/23 00:12:56;;;;;;;3.35;1.20;;;;;;;9.84;100.00;96584.97;4984513;28;20235;-50
2020/12/23 00:15:23;;;;;;;1.60;0.95;;;;;;;9.80;100.00;96575.66;4944893;28;20049;-51
2020/12/23 00:17:49;;;;;;;2.95;1.10;;;;;;;9.80;100.00;96570.41;4987977;28;20497;-49
2020/12/23 00:20:16;;;;;;;2.00;0.75;;;;;;;9.90;100.00;96570.41;4950815;28;20042;-47
2020/12/23 00:22:44;;;;;;;1.42;0.90;;;;;;;9.84;100.00;96565.69;4980326;28;20121;-51
2020/12/23 00:25:11;;;;;;;0.68;0.50;;;;;;;9.83;100.00;96562.22;4985018;28;20042;-50
2020/12/23 00:27:38;;;;;;;0.68;0.60;;;;;;;9.89;100.00;96572.22;4949181;28;20121;-50
2020/12/23 00:30:05;;;;;;;1.83;0.60;;;;;;;9.81;100.00;96558.09;4983928;28;20054;-51
2020/12/23 00:32:32;;;;;;;1.30;0.70;;;;;;;9.91;100.00;96558.91;4945711;28;20491;-49
2020/12/23 00:34:59;;;;;;;0.73;0.50;;;;;;;9.92;100.00;96558.78;4988064;28;20070;-52
2020/12/23 00:37:26;;;;;;;1.17;0.50;;;;;;;9.92;100.00;96557.94;4943929;28;20069;-51
2020/12/23 00:39:54;;;;;;;1.13;0.52;;;;;;;9.93;100.00;96556.97;4979306;28;20122;-47
2020/12/23 00:42:21;;;;;;;0.45;0.40;;;;;;;9.98;100.00;96554.78;4958550;28;20054;-50
2020/12/23 00:44:49;;;;;;;0.88;0.47;;;;;;;10.06;100.00;96556.72;4988333;28;20046;-49
2020/12/23 00:47:16;;;;;;;0.50;0.35;;;;;;;10.19;100.00;96557.25;4953610;28;20050;-51
2020/12/23 00:49:43;;;;;;;0.30;0.20;;;;;;;10.20;100.00;96543.09;4982695;28;20034;-51
2020/12/23 00:52:10;;;;;;;0.50;0.43;;;;;;;10.21;100.00;96550.84;4946692;28;20116;-47
2020/12/23 00:54:37;;;;;;;0.43;0.40;;;;;;;10.35;100.00;96547.00;4985968;28;20038;-47
2020/12/23 00:57:05;;;;;;;0.90;0.47;;;;;;;10.49;100.00;96543.06;4950502;28;20078;-49
2020/12/23 00:59:33;;;;;;;0.55;0.40;;;;;;;10.45;100.00;96544.34;4984082;28;20038;-49
2020/12/23 01:02:00;;;;;;;0.40;0.30;;;;;;;10.41;100.00;96545.59;4949270;28;20046;-50
2020/12/23 01:04:27;;;;;;;0.63;0.30;;;;;;;10.75;100.00;96545.94;4984724;28;20034;-48
2020/12/23 01:06:54;;;;;;;0.30;0.30;;;;;;;10.80;99.88;96559.50;4960305;28;20077;-48
2020/12/23 01:09:22;;;;;;;0.82;0.38;;;;;;;10.88;98.27;96549.09;4977310;28;20042;-52
2020/12/23 01:11:49;;;;;;;0.30;0.30;;;;;;;10.85;98.64;96548.56;4989291;28;20058;-49
2020/12/23 01:14:17;;;;;;;0.40;0.40;;;;;;;10.92;97.65;96552.28;4948797;28;20074;-49
2020/12/23 01:16:44;;;;;;;1.13;0.38;;;;;;;10.96;97.08;96555.44;4981870;28;20038;-47
2020/12/23 01:19:11;;;;;;;1.25;0.50;;;;;;;10.89;97.18;96555.19;4967366;28;20481;-47
2020/12/23 01:21:38;;;;;;;1.58;0.50;;;;;;;10.85;97.34;96561.75;4981823;28;20046;-50
2020/12/23 01:24:05;;;;;;;0.45;0.32;;;;;;;10.81;97.69;96558.56;4945176;28;20412;-52
2020/12/23 01:26:32;;;;;;;0.98;0.30;;;;;;;10.73;98.32;96568.16;4984892;28;20054;-49
2020/12/23 01:28:59;;;;;;;0.60;0.50;;;;;;;10.68;99.12;96563.31;4942309;28;20448;-47
2020/12/23 01:31:27;;;;;;;0.50;0.30;;;;;;;10.59;99.58;96566.78;4985970;28;20097;-49
2020/12/23 01:34:03;;;;;;;1.38;0.45;;;;;;;10.53;99.33;96557.66;4950507;28;20042;-49
2020/12/23 01:36:30;;;;;;;0.30;0.25;;;;;;;10.71;98.12;96556.94;4978806;28;20042;-47
2020/12/23 01:38:57;;;;;;;0.50;0.30;;;;;;;10.53;99.34;96557.66;4955618;28;20132;-48
2020/12/23 01:41:24;;;;;;;0.60;0.40;;;;;;;10.41;99.85;96561.41;4978520;28;20046;-48
2020/12/23 01:43:55;;;;;;;0.68;0.30;;;;;;;10.25;100.00;96561.94;4946786;28;20682;-48
2020/12/23 01:46:29;;;;;;;0.30;0.30;;;;;;;10.17;100.00;96569.72;4982474;28;20120;-52
2020/12/23 01:48:57;;;;;;;0.98;0.40;;;;;;;10.08;100.00;96560.00;4952377;28;20074;-49
2020/12/23 01:51:25;;;;;;;0.38;0.35;;;;;;;9.84;100.00;96557.78;4985707;28;20514;-49
2020/12/23 01:53:54;;;;;;;1.85;0.43;;;;;;;9.56;100.00;96557.63;4952006;28;20093;-49
2020/12/23 01:56:21;;;;;;;2.05;0.50;;;;;;;9.41;100.00;96564.25;4984218;28;20528;-48
2020/12/23 01:58:48;;;;;;;0.40;0.40;;;;;;;9.36;100.00;96562.03;4984104;28;20100;-49
2020/12/23 02:01:19;;;;;;;0.70;0.40;;;;;;;9.24;100.00;96553.38;4944774;28;20452;-52
2020/12/23 02:03:47;;;;;;;0.52;0.40;;;;;;;9.00;100.00;96566.88;4987152;28;20389;-47
2020/12/23 02:06:15;;;;;;;0.55;0.35;;;;;;;9.01;100.00;96559.81;4945047;28;20042;-49
2020/12/23 02:08:42;;;;;;;0.57;0.30;;;;;;;9.01;100.00;96557.19;4993052;28;20045;-51
2020/12/23 02:11:10;;;;;;;0.93;0.40;;;;;;;8.92;100.00;96552.72;4957788;28;20050;-47
2020/12/23 02:13:39;;;;;;;4.80;0.47;;;;;;;8.76;100.00;96572.44;4982293;28;20201;-51
2020/12/23 02:16:07;;;;;;;0.40;0.40;;;;;;;8.62;100.00;96567.53;4945567;28;20096;-49
2020/12/23 02:18:35;;;;;;;1.10;0.70;;;;;;;8.50;100.00;96563.31;4982378;28;20046;-49
2020/12/23 02:21:03;;;;;;;2.17;0.50;;;;;;;8.53;100.00;96563.03;4943135;28;20158;-50
2020/12/23 02:23:30;;;;;;;9.68;0.70;;;;;;;8.57;100.00;96559.22;4985447;28;20073;-47
2020/12/23 02:25:58;;;;;;;0.95;0.40;;;;;;;8.73;100.00;96558.72;4946203;28;20075;-49
2020/12/23 02:28:25;;;;;;;0.63;0.40;;;;;;;8.80;100.00;96560.69;4985669;28;20043;-51
2020/12/23 02:30:58;;;;;;;0.90;0.55;;;;;;;8.93;100.00;96551.75;4947062;28;20055;-49
2020/12/23 02:33:25;;;;;;;3.13;0.50;;;;;;;8.99;100.00;96544.16;4977906;28;20571;-50
2020/12/23 02:35:52;;;;;;;1.02;0.60;;;;;;;9.04;100.00;96551.66;4935813;28;20049;-51
2020/12/23 02:38:19;;;;;;;0.63;0.57;;;;;;;8.93;100.00;96547.31;4973166;28;20771;-50
2020/12/23 02:40:47;;;;;;;1.35;0.70;;;;;;;8.96;100.00;96533.91;4938376;28;20501;-48
2020/12/23 02:43:14;;;;;;;1.67;0.40;;;;;;;8.89;100.00;96538.03;4983918;28;20043;-50
2020/12/23 02:45:41;;;;;;;1.25;0.70;;;;;;;8.86;100.00;96540.94;4982780;28;20034;-48
2020/12/23 02:48:08;;;;;;;3.35;1.15;;;;;;;8.91;100.00;96541.38;4975443;28;20129;-52
2020/12/23 02:50:36;;;;;;;0.77;0.47;;;;;;;8.97;100.00;96538.19;4987485;28;20426;-51
2020/12/23 02:53:02;;;;;;;1.30;0.60;;;;;;;9.01;100.00;96536.13;4949555;28;20038;-51
2020/12/23 02:55:29;;;;;;;2.33;0.50;;;;;;;9.02;100.00;96517.59;4985664;28;20074;-50
2020/12/23 02:57:57;;;;;;;0.70;0.35;;;;;;;9.07;100.00;96517.19;4941412;28;20027;-52
2020/12/23 03:00:24;;;;;;;0.85;0.50;;;;;;;9.11;100.00;96518.59;4980288;28;20038;-52
2020/12/23 03:02:51;;;;;;;1.27;0.50;;;;;;;9.19;100.00;96516.13;4953633;28;20144;-49
2020/12/23 03:05:17;;;;;;;1.58;0.35;;;;;;;9.24;100.00;96513.91;4986710;28;20047;-53
2020/12/23 03:07:44;;;;;;;1.02;0.50;;;;;;;9.25;100.00;96522.63;4958968;28;20058;-48
2020/12/23 03:10:11;;;;;;;1.35;0.55;;;;;;;9.28;100.00;96511.84;4983916;28;20141;-50
2020/12/23 03:12:39;;;;;;;1.13;0.50;;;;;;;9.35;100.00;96510.34;4947250;28;20600;-52
2020/12/23 03:15:07;;;;;;;0.57;0.40;;;;;;;9.44;100.00;96511.34;4985431;28;20046;-48
2020/12/23 03:17:34;;;;;;;1.02;0.40;;;;;;;9.44;100.00;96504.28;4949657;28;20422;-49
2020/12/23 03:20:01;;;;;;;0.50;0.38;;;;;;;9.55;100.00;96508.56;4986924;28;20406;-48
2020/12/23 03:22:28;;;;;;;0.40;0.30;;;;;;;9.57;100.00;96503.19;4950690;28;20062;-54
2020/12/23 03:24:54;;;;;;;1.10;0.30;;;;;;;9.65;100.00;96493.63;4983818;28;20051;-49
2020/12/23 03:27:22;;;;;;;0.95;0.32;;;;;;;9.72;100.00;96488.63;4953357;28;20522;-49
2020/12/23 03:29:48;;;;;;;1.38;0.50;;;;;;;9.67;100.00;96488.19;4977846;28;20052;-49
2020/12/23 03:32:17;;;;;;;0.65;0.40;;;;;;;9.71;100.00;96485.16;4986155;28;20468;-46
2020/12/23 03:34:44;;;;;;;0.47;0.30;;;;;;;9.65;100.00;96488.34;4939261;28;20544;-50
2020/12/23 03:37:11;;;;;;;1.95;0.50;;;;;;;9.73;100.00;96491.13;4981390;28;20062;-49
2020/12/23 03:39:38;;;;;;;0.63;0.30;;;;;;;9.78;100.00;96477.56;4948695;28;20061;-50
2020/12/23 03:42:05;;;;;;;3.08;0.50;;;;;;;9.82;100.00;96486.84;4986131;28;20043;-50
2020/12/23 03:44:32;;;;;;;0.82;0.40;;;;;;;9.83;100.00;96482.38;4960466;28;20101;-47
2020/12/23 03:46:59;;;;;;;0.30;0.30;;;;;;;9.88;99.76;96483.66;4986249;28;20035;-47
2020/12/23 03:49:26;;;;;;;2.28;0.32;;;;;;;9.85;100.00;96494.47;4949990;28;20705;-47
2020/12/23 03:51:53;;;;;;;0.90;0.40;;;;;;;9.88;99.50;96486.28;4981682;28;20042;-47
2020/12/23 03:54:20;;;;;;;2.58;0.38;;;;;;;9.89;99.60;96481.84;4937810;28;20113;-49
2020/12/23 03:56:47;;;;;;;1.45;0.40;;;;;;;9.96;98.97;96482.94;4987351;28;20572;-52
2020/12/23 03:59:14;;;;;;;1.05;0.60;;;;;;;10.10;97.70;96482.50;4950687;28;20066;-48
2020/12/23 04:01:41;;;;;;;0.50;0.30;;;;;;;10.13;97.01;96481.41;4987099;28;20046;-47
2020/12/23 04:04:08;;;;;;;0.90;0.43;;;;;;;10.06;97.76;96483.75;4952166;28;20109;-47
2020/12/23 04:06:35;;;;;;;1.17;0.30;;;;;;;10.02;97.94;96471.03;4981809;28;20097;-51
2020/12/23 04:09:02;;;;;;;2.35;0.40;;;;;;;9.99;98.19;96477.41;4950899;28;20497;-53
2020/12/23 04:11:30;;;;;;;2.25;0.35;;;;;;;10.05;98.12;96474.22;4997595;28;20066;-52
2020/12/23 04:13:56;;;;;;;0.25;0.25;;;;;;;10.03;97.82;96465.59;4983216;28;20476;-53
2020/12/23 04:16:23;;;;;;;0.70;0.45;;;;;;;10.09;97.32;96464.22;4943689;28;20049;-52
2020/12/23 04:18:50;;;;;;;2.10;0.35;;;;;;;10.13;96.81;96465.59;4981430;28;20081;-49
2020/12/23 04:21:17;;;;;;;0.63;0.28;;;;;;;10.13;96.69;96465.59;4951358;28;20038;-49
2020/12/23 04:23:45;;;;;;;0.88;0.40;;;;;;;10.07;97.22;96472.25;4987240;28;20085;-47
2020/12/23 04:26:12;;;;;;;0.52;0.40;;;;;;;10.05;97.27;96468.06;4955218;28;20121;-49
2020/12/23 04:28:39;;;;;;;0.50;0.40;;;;;;;10.11;97.06;96467.50;4984860;28;20475;-51
2020/12/23 04:33:58;;;;;;;1.63;0.50;;;;;;;9.95;98.72;96471.56;4974250;28;20133;-48
2020/12/23 04:36:26;;;;;;;0.85;0.30;;;;;;;9.92;99.01;96471.84;4950795;28;20073;-50
2020/12/23 04:38:53;;;;;;;0.70;0.30;;;;;;;10.02;98.42;96461.31;4984849;28;20065;-50
2020/12/23 04:41:20;;;;;;;2.75;0.43;;;;;;;10.06;97.75;96461.84;4976706;23;20042;-59
2020/12/23 04:43:47;;;;;;;0.82;0.50;;;;;;;10.03;97.62;96454.22;4985470;28;20390;-48
2020/12/23 04:46:18;;;;;;;1.33;0.30;;;;;;;10.04;97.44;96455.88;4935104;28;20039;-53
2020/12/23 04:48:48;;;;;;;0.43;0.40;;;;;;;10.02;97.69;96456.03;4986801;28;20042;-50
2020/12/23 04:51:16;;;;;;;0.43;0.38;;;;;;;10.01;97.80;96454.34;4949655;28;20062;-53
2020/12/23 04:53:42;;;;;;;2.08;0.40;;;;;;;9.85;98.32;96447.03;4981836;28;20050;-49
2020/12/23 04:56:11;;;;;;;1.52;0.40;;;;;;;9.70;99.50;96457.19;4955880;28;23073;-51
2020/12/23 04:58:39;;;;;;;0.20;0.20;;;;;;;9.64;100.00;96449.00;4985497;28;20160;-53
2020/12/23 05:01:06;;;;;;;0.93;0.45;;;;;;;9.57;100.00;96450.53;4942196;28;20149;-58
2020/12/23 05:03:33;;;;;;;2.70;0.50;;;;;;;9.57;100.00;96450.53;4981026;28;20043;-55
2020/12/23 05:06:13;;;;;;;0.60;0.40;;;;;;;9.68;100.00;96450.38;4953959;28;20056;-52
2020/12/23 05:08:43;;;;;;;1.52;0.40;;;;;;;9.68;100.00;96453.03;4983136;28;20042;-55
2020/12/23 05:11:11;;;;;;;0.40;0.30;;;;;;;9.71;100.00;96443.03;4986561;28;20097;-56
2020/12/23 05:13:39;;;;;;;1.70;0.63;;;;;;;9.48;100.00;96439.84;4953996;28;20042;-54
2020/12/23 05:16:08;;;;;;;0.88;0.50;;;;;;;9.33;100.00;96435.16;4980422;28;20070;-53
2020/12/23 05:18:37;;;;;;;0.73;0.40;;;;;;;9.17;100.00;96436.50;4938643;28;20148;-54
2020/12/23 05:21:14;;;;;;;0.73;0.45;;;;;;;9.22;100.00;96441.34;4985929;28;20054;-54
2020/12/23 05:23:42;;;;;;;2.67;0.60;;;;;;;9.27;100.00;96436.53;4941112;28;20045;-53
2020/12/23 05:26:11;;;;;;;2.45;0.57;;;;;;;9.24;100.00;96434.16;4980307;28;20050;-52
2020/12/23 05:28:38;;;;;;;2.15;0.60;;;;;;;9.25;100.00;96449.78;4950404;28;20074;-52
2020/12/23 05:31:06;;;;;;;1.95;0.50;;;;;;;9.26;100.00;96438.31;4969173;28;23793;-54
2020/12/23 05:33:34;;;;;;;1.38;0.65;;;;;;;9.15;100.00;96427.06;4948769;28;20047;-50
2020/12/23 05:36:02;;;;;;;1.00;0.50;;;;;;;9.14;100.00;96430.69;4976410;28;20066;-58
2020/12/23 05:38:31;;;;;;;0.88;0.68;;;;;;;9.13;100.00;96429.84;4949299;28;20038;-53
2020/12/23 05:41:00;;;;;;;1.90;0.60;;;;;;;9.25;100.00;96430.53;4983238;28;20127;-56
2020/12/23 05:43:29;;;;;;;5.28;0.70;;;;;;;9.26;100.00;96430.44;4950511;28;21595;-49
2020/12/23 05:45:57;;;;;;;2.53;0.70;;;;;;;9.30;100.00;96435.41;4986890;28;20061;-53
2020/12/23 05:48:23;;;;;;;0.90;0.60;;;;;;;9.28;100.00;96433.75;4950910;28;20161;-49
2020/12/23 05:50:51;;;;;;;1.30;0.70;;;;;;;9.31;100.00;96432.63;4978344;28;20053;-57
2020/12/23 05:53:18;;;;;;;2.03;0.80;;;;;;;9.36;100.00;96424.31;4943781;28;20047;-56
2020/12/23 05:55:46;;;;;;;1.85;0.63;;;;;;;9.40;100.00;96436.25;4985986;28;20046;-53
2020/12/23 05:58:20;;;;;;;0.82;0.60;;;;;;;9.43;100.00;96434.19;4956366;28;20058;-60
2020/12/23 06:00:49;;;;;;;0.80;0.50;;;;;;;9.46;100.00;96433.06;4983809;28;20046;-50
2020/12/23 06:03:22;;;;;;;1.45;0.77;;;;;;;9.43;100.00;96430.72;4984372;28;20169;-53
2020/12/23 06:06:08;;;;;;;0.82;0.50;;;;;;;9.38;100.00;96423.22;4973496;28;20421;-52
2020/12/23 06:08:37;;;;;;;1.45;0.60;;;;;;;9.34;100.00;96431.53;4973137;28;20038;-52
2020/12/23 06:11:27;;;;;;;1.75;0.45;;;;;;;9.30;100.00;96422.25;4975788;28;20038;-48
2020/12/23 06:14:11;;;;;;;1.02;0.50;;;;;;;9.32;100.00;96436.91;4931794;28;20534;-52
2020/12/23 06:16:40;;;;;;;0.60;0.47;;;;;;;9.34;100.00;96427.09;4983820;28;20047;-48
2020/12/23 06:19:09;;;;;;;0.65;0.50;;;;;;;9.41;100.00;96428.22;4953837;28;20034;-51
2020/12/23 06:21:36;;;;;;;3.22;0.93;;;;;;;9.32;100.00;96405.34;4988674;28;20068;-50
2020/12/23 06:24:08;;;;;;;1.00;0.47;;;;;;;9.21;100.00;96430.00;4991831;28;20429;-49
2020/12/23 06:26:37;;;;;;;1.70;0.70;;;;;;;9.30;100.00;96422.25;4970799;28;20110;-56
2020/12/23 06:29:06;;;;;;;0.95;0.70;;;;;;;9.38;100.00;96430.28;4982811;28;20409;-53
2020/12/23 06:31:40;;;;;;;0.60;0.47;;;;;;;9.38;100.00;96427.66;4948694;28;20042;-48
2020/12/23 06:34:08;;;;;;;1.00;0.55;;;;;;;9.40;100.00;96420.47;4990519;28;20046;-50
2020/12/23 06:36:35;;;;;;;0.90;0.50;;;;;;;9.37;100.00;96415.47;4940989;28;20046;-54
2020/12/23 06:39:29;;;;;;;1.50;0.57;;;;;;;9.39;100.00;96434.56;4987904;28;20042;-48
2020/12/23 06:42:24;;;;;;;0.63;0.50;;;;;;;9.38;100.00;96432.91;4958187;28;20634;-49
2020/12/23 06:44:56;;;;;;;1.95;0.50;;;;;;;9.40;100.00;96428.38;4984055;28;20085;-50
2020/12/23 06:47:24;;;;;;;0.90;0.60;;;;;;;9.40;100.00;96426.56;4966910;28;20042;-51
2020/12/23 06:49:52;;;;;;;4.35;0.50;;;;;;;9.38;100.00;96427.66;4988162;28;20126;-49
2020/12/23 06:52:39;;;;;;;0.80;0.60;;;;;;;9.43;100.00;96428.91;4944982;28;20457;-48
2020/12/23 06:55:07;;;;;;;1.63;0.70;;;;;;;9.44;100.00;96427.94;4988515;28;20082;-54
2020/12/23 06:57:56;;;;;;;1.42;0.70;;;;;;;9.40;100.00;96425.72;4959281;28;20549;-49
2020/12/23 07:00:47;;;;;;;2.35;0.75;;;;;;;9.47;100.00;96424.22;4985700;28;20101;-52
2020/12/23 07:03:33;;;;;;;1.88;0.75;;;;;;;9.53;100.00;96428.91;4980227;28;20050;-51
2020/12/23 07:06:00;;;;;;;0.93;0.55;;;;;;;9.49;100.00;96423.06;4952259;28;20641;-49
2020/12/23 07:08:45;;;;;;;3.72;0.70;;;;;;;9.48;100.00;96425.84;4980751;28;20043;-49
2020/12/23 07:11:16;;;;;;;0.65;0.60;;;;;;;9.44;100.00;96427.13;4937454;28;20199;-49
2020/12/23 07:13:43;;;;;;;;;;;;;;;9.38;100.00;96433.75;4987873;28;20050;-52
2020/12/23 07:16:10;;;;;;;1.33;0.70;;;;;;;9.45;100.00;96420.88;4970790;28;20001;-61
2020/12/23 07:18:38;;;;;;;2.53;0.73;;;;;;;9.56;100.00;96417.25;4971409;28;20042;-54
2020/12/23 07:21:07;;;;;;;1.30;0.70;;;;;;;9.66;100.00;96424.19;4990924;28;20046;-48
2020/12/23 07:23:35;;;;;;;1.20;0.70;;;;;;;9.72;100.00;96428.91;4949713;28;20038;-58
2020/12/23 07:26:05;;;;;;;1.77;0.68;;;;;;;9.80;100.00;96428.19;4986876;28;20636;-52
2020/12/23 07:28:33;;;;;;;1.30;0.60;;;;;;;9.93;98.84;96423.47;4942373;28;20062;-51
2020/12/23 07:31:01;;;;;;;1.95;0.60;;;;;;;10.05;97.66;96431.19;4997258;28;20047;-51
2020/12/23 07:33:29;;;;;;;2.40;0.55;;;;;;;10.12;96.76;96432.31;4951417;28;20074;-50
2020/12/23 07:35:58;;;;;;;0.85;0.50;;;;;;;10.19;95.58;96425.50;4984299;28;20445;-53
2020/12/23 07:38:26;;;;;;;1.48;0.50;;;;;;;10.22;95.19;96427.84;4956754;28;20065;-54
2020/12/23 07:40:54;;;;;;;2.45;0.55;;;;;;;10.29;94.17;96426.34;4985696;28;20129;-55
2020/12/23 07:43:21;;;;;;;2.67;0.77;;;;;;;10.25;94.62;96419.63;4949815;28;20054;-55
2020/12/23 07:45:50;;;;;;;0.85;0.50;;;;;;;10.17;96.11;96419.53;4988042;28;20058;-52
2020/12/23 07:48:18;;;;;;;4.20;0.93;;;;;;;10.10;96.33;96426.34;4948525;28;20053;-54
2020/12/23 07:50:47;;;;;;;1.40;1.00;;;;;;;10.04;97.26;96425.09;4988113;28;20104;-54
2020/12/23 07:53:17;;;;;;;2.88;0.80;;;;;;;10.02;97.21;96431.50;4950829;28;20057;-51
2020/12/23 07:55:45;;;;;;;1.05;0.80;;;;;;;9.99;97.83;96427.34;4980034;28;20504;-54
2020/12/23 07:58:12;;;;;;;0.90;0.57;;;;;;;10.07;97.31;96424.00;4947480;28;20180;-54
2020/12/23 08:00:41;;;;;;;1.63;0.68;;;;;;;9.99;97.97;96424.72;4985018;28;20046;-51
2020/12/23 08:03:08;;;;;;;0.90;0.63;;;;;;;9.98;98.24;96426.50;4953692;28;20188;-55
2020/12/23 08:05:36;;;;;;;1.83;1.00;;;;;;;9.94;98.85;96427.78;4983037;28;20046;-50
2020/12/23 08:08:26;;;;;;;1.33;0.75;;;;;;;9.98;98.65;96415.16;4965451;28;20728;-50
2020/12/23 08:10:53;;;;;;;3.13;1.00;;;;;;;10.03;98.36;96420.81;4988878;28;20110;-49
2020/12/23 08:13:25;;;;;;;2.30;1.10;;;;;;;10.09;97.76;96420.25;4984671;28;20409;-49
2020/12/23 08:16:02;;;;;;;1.77;0.88;;;;;;;10.05;97.51;96418.88;4979527;28;20047;-56
2020/12/23 08:18:29;;;;;;;1.60;0.90;;;;;;;10.05;98.11;96415.38;4986827;28;20105;-51
2020/12/23 08:20:56;;;;;;;3.58;0.95;;;;;;;10.07;98.13;96416.09;4943234;28;20049;-50
2020/12/23 08:23:23;;;;;;;1.58;0.80;;;;;;;10.14;97.28;96417.19;4982054;28;20125;-52
2020/12/23 08:25:51;;;;;;;2.97;0.90;;;;;;;10.19;96.67;96420.22;4949657;28;20042;-48
2020/12/23 08:28:21;;;;;;;2.35;1.17;;;;;;;10.18;96.80;96415.91;4986471;28;20050;-51
2020/12/23 08:30:48;;;;;;;2.92;0.95;;;;;;;10.29;96.80;96423.69;4953823;28;20108;-51
2020/12/23 08:33:16;;;;;;;0.90;0.80;;;;;;;10.33;96.90;96421.59;4982973;28;20112;-49
2020/12/23 08:35:44;;;;;;;1.85;0.90;;;;;;;10.31;96.91;96426.19;4946995;28;20505;-50
2020/12/23 08:38:16;;;;;;;8.88;1.13;;;;;;;10.46;96.19;96414.22;4983139;28;20517;-50
2020/12/23 08:40:48;;;;;;;3.17;1.00;;;;;;;10.47;96.22;96415.84;4939175;28;20129;-49
2020/12/23 08:43:20;;;;;;;1.63;0.90;;;;;;;10.49;96.87;96408.63;4985232;28;20042;-49
2020/12/23 08:45:49;;;;;;;1.58;0.82;;;;;;;10.48;96.29;96401.69;4946863;28;20042;-48
2020/12/23 08:48:19;;;;;;;1.00;0.80;;;;;;;10.54;95.83;96395.84;4986586;28;20054;-51
2020/12/23 08:50:53;;;;;;;4.10;1.15;;;;;;;10.52;95.37;96404.88;4956035;28;20050;-48
2020/12/23 08:53:31;;;;;;;1.58;1.00;;;;;;;10.53;95.93;96398.59;4985575;28;20120;-52
2020/12/23 08:56:21;;;;;;;1.30;0.90;;;;;;;10.61;95.56;96394.28;4939686;28;20050;-52
2020/12/23 08:58:50;;;;;;;1.98;1.00;;;;;;;10.77;93.79;96392.81;4985723;28;20513;-49
2020/12/23 09:01:22;;;;;;;1.98;0.90;;;;;;;10.79;93.46;96393.50;4947853;28;20050;-55
2020/12/23 09:03:57;;;;;;;1.50;0.65;;;;;;;10.81;93.35;96399.47;4988766;28;20054;-53
2020/12/23 09:06:25;;;;;;;1.67;0.70;;;;;;;10.80;94.71;96401.25;4954529;28;20049;-49
2020/12/23 09:09:13;;;;;;;1.23;0.70;;;;;;;10.75;95.27;96406.16;4987513;28;20476;-49
2020/12/23 09:11:42;;;;;;;2.78;0.70;;;;;;;10.61;97.11;96414.56;4945540;28;20046;-55
2020/12/23 09:14:21;;;;;;;1.10;0.57;;;;;;;10.62;97.94;96413.56;4985834;28;20475;-49
2020/12/23 09:16:52;;;;;;;1.05;0.52;;;;;;;10.64;98.31;96411.63;4943271;28;20563;-51
2020/12/23 09:19:19;;;;;;;2.90;0.70;;;;;;;10.60;99.00;96407.63;4982971;28;20101;-49
2020/12/23 09:21:56;;;;;;;1.67;0.70;;;;;;;10.68;98.36;96407.72;4950018;28;20137;-50
2020/12/23 09:24:23;;;;;;;2.08;0.60;;;;;;;10.67;99.16;96409.53;4980331;28;20449;-51
2020/12/23 09:26:50;;;;;;;2.22;0.75;;;;;;;10.62;100.00;96397.75;4953596;28;20070;-50
2020/12/23 09:29:17;;;;;;;2.45;0.50;;;;;;;10.66;100.00;96394.66;4980912;28;20081;-53
2020/12/23 09:31:53;;;;;;;1.48;0.77;;;;;;;10.67;100.00;96390.25;4945596;28;20058;-48
2020/12/23 09:34:23;;;;;;;1.33;0.60;;;;;;;10.86;97.94;96387.47;4982551;28;20055;-49
2020/12/23 09:36:54;;;;;;;1.10;0.70;;;;;;;10.96;96.52;96384.78;4951299;28;20046;-53
2020/12/23 09:39:21;;;;;;;1.20;0.60;;;;;;;10.91;95.82;96379.13;4982867;28;20698;-50
2020/12/23 09:41:59;;;;;;;0.80;0.50;;;;;;;10.93;96.57;96382.44;4970927;28;20042;-60
2020/12/23 09:44:27;;;;;;;1.05;0.43;;;;;;;10.97;96.05;96385.59;4985189;28;20050;-53
2020/12/23 09:46:54;;;;;;;0.88;0.43;;;;;;;10.98;96.19;96388.09;4982011;28;20093;-56
2020/12/23 09:49:21;;;;;;;0.90;0.60;;;;;;;11.05;95.81;96394.44;4945255;28;20113;-49
2020/12/23 09:51:49;;;;;;;1.40;0.70;;;;;;;10.99;97.05;96395.03;4981580;28;20133;-52
2020/12/23 09:54:16;;;;;;;1.60;0.98;;;;;;;11.05;97.73;96386.53;4942065;28;20575;-53
2020/12/23 09:56:48;;;;;;;1.40;0.80;;;;;;;11.11;96.80;96383.31;4990346;28;20101;-53
2020/12/23 09:59:15;;;;;;;1.08;0.70;;;;;;;11.20;95.89;96368.34;4957872;28;20046;-51
2020/12/23 10:01:43;;;;;;;1.67;0.80;;;;;;;11.22;96.29;96365.56;4980893;28;20050;-54
2020/12/23 10:04:10;;;;;;;2.88;0.82;;;;;;;11.22;95.66;96365.56;4946006;28;20101;-56
2020/12/23 10:06:38;;;;;;;1.70;0.70;;;;;;;11.28;94.72;96362.31;4986863;28;20061;-56
2020/12/23 10:09:05;;;;;;;3.15;0.68;;;;;;;11.34;93.69;96364.34;4947013;28;20039;-53
2020/12/23 10:11:33;;;;;;;1.30;0.60;;;;;;;11.56;92.28;96355.13;4987359;28;20082;-56
2020/12/23 10:14:00;;;;;;;1.25;0.70;;;;;;;11.71;90.55;96348.31;4951518;28;20058;-51
2020/12/23 10:16:31;;;;;;;1.20;0.70;;;;;;;11.87;89.66;96340.53;4990039;28;20046;-54
2020/12/23 10:18:59;;;;;;;2.17;0.73;;;;;;;11.96;89.62;96330.84;4956554;28;20046;-57
2020/12/23 10:21:26;;;;;;;1.02;0.68;;;;;;;11.95;88.52;96337.13;4983226;28;20523;-50
2020/12/23 10:23:53;;;;;;;3.10;0.82;;;;;;;11.68;91.68;96334.59;4947404;28;20145;-55
2020/12/23 10:26:20;;;;;;;3.03;0.75;;;;;;;11.81;91.47;96327.09;4986943;28;20052;-51
2020/12/23 10:28:47;;;;;;;3.38;0.80;;;;;;;11.71;92.84;96335.13;4946700;28;20138;-52
2020/12/23 10:31:14;;;;;;;1.88;0.90;;;;;;;11.65;93.54;96325.97;4986663;28;20130;-53
2020/12/23 10:33:41;;;;;;;1.88;0.60;;;;;;;11.56;93.85;96336.63;4988411;28;20152;-52
2020/12/23 10:36:12;;;;;;;0.75;0.60;;;;;;;11.70;92.77;96328.19;4945914;28;20497;-53
2020/12/23 10:38:39;;;;;;;;;;;;;;;11.88;92.30;96325.50;4985776;28;20073;-51
2020/12/23 10:41:06;;;;;;;1.50;0.80;;;;;;;12.18;89.49;96310.13;4960813;28;19922;-58
2020/12/23 10:43:33;;;;;;;1.42;0.65;;;;;;;12.41;87.74;96310.41;4988143;28;20035;-50
2020/12/23 10:46:00;;;;;;;2.53;0.90;;;;;;;12.53;87.08;96306.50;4984503;23;20048;-47
2020/12/23 10:48:27;;;;;;;2.78;0.70;;;;;;;12.61;87.10;96297.75;4990196;28;20047;-47
2020/12/23 10:50:54;;;;;;;2.00;0.80;;;;;;;12.54;87.53;96292.28;4960146;28;20042;-48
2020/12/23 10:53:22;;;;;;;0.52;0.43;;;;;;;12.49;87.71;96291.91;4984071;28;20035;-48
2020/12/23 10:55:49;;;;;;;1.40;0.85;;;;;;;12.47;87.96;96293.91;4954890;28;20146;-49
2020/12/23 10:58:16;;;;;;;1.98;0.88;;;;;;;12.63;87.47;96291.31;4989059;28;20492;-55
2020/12/23 11:00:44;;;;;;;2.20;1.00;;;;;;;12.53;86.63;96287.97;4945776;28;20038;-46
2020/12/23 11:03:11;;;;;;;1.05;0.73;;;;;;;12.75;86.59;96287.34;4987835;28;20141;-49
2020/12/23 11:05:38;;;;;;;1.85;0.80;;;;;;;12.80;86.29;96278.91;4944753;28;20050;-49
2020/12/23 11:08:30;;;;;;;1.60;0.82;;;;;;;13.17;84.84;96286.41;4987173;28;20042;-47
2020/12/23 11:10:57;;;;;;;2.22;0.93;;;;;;;13.12;84.97;96282.63;4951000;28;20639;-53
2020/12/23 11:13:24;;;;;;;1.60;0.70;;;;;;;13.14;84.69;96278.78;4989473;28;20513;-48
2020/12/23 11:15:51;;;;;;;1.20;0.80;;;;;;;13.33;82.70;96284.81;4947264;28;20138;-51
2020/12/23 11:18:18;;;;;;;2.20;0.95;;;;;;;13.51;81.12;96283.63;4986049;28;20045;-50
2020/12/23 11:20:45;;;;;;;1.58;0.73;;;;;;;13.73;80.67;96276.00;4948293;28;20058;-50
2020/12/23 11:23:23;;;;;;;1.70;0.80;;;;;;;13.76;80.76;96278.28;4984362;28;20042;-49
2020/12/23 11:25:51;;;;;;;39.90;26.63;;;;;;;13.78;80.94;96269.16;4978236;28;20110;-54
2020/12/23 11:28:18;;;;;;;73.03;49.40;;;;;;;13.72;82.53;96269.84;4981953;28;20062;-48
2020/12/23 11:30:46;;;;;;;6.50;3.30;;;;;;;13.40;84.04;96273.38;4986771;28;20047;-46
2020/12/23 11:33:13;;;;;;;6.13;4.25;;;;;;;13.39;84.47;96270.91;4953702;28;20042;-49
2020/12/23 11:35:40;;;;;;;11.77;9.68;;;;;;;13.47;84.56;96265.59;4981930;28;20066;-48
2020/12/23 11:38:07;;;;;;;18.13;14.75;;;;;;;13.63;83.55;96256.81;4940647;28;20047;-50
2020/12/23 11:40:34;;;;;;;4.78;3.47;;;;;;;13.68;82.57;96252.63;4987100;28;20145;-47
2020/12/23 11:43:02;;;;;;;7.20;6.50;;;;;;;13.79;82.44;96251.44;4947734;28;20042;-50
2020/12/23 11:45:30;;;;;;;2.55;2.10;;;;;;;14.02;81.72;96252.38;4986454;28;20101;-50